Time;durP1;ratioP1;P1;durP2;ratioP2;P2;SDS_P1;SDS_P2;PMS_P1;PMS_P2;Temp;Humidity;BMP_temperature;BMP_pressure;BME280_temperature;BME280_humidity;BME280_pressure;Samples;Min_cycle;Max_cycle;Signal;HPM_P1;HPM_P2
2022/04/22 00:00:57;;;;;;;0.10;0.10;;;;;;;;;;4180783;28;20548;-35
2022/04/22 00:02:58;;;;;;;0.17;0.10;;;;;;;;;;4181815;28;20060;-35
2022/04/22 00:05:00;;;;;;;0.10;0.10;;;;;;;;;;4180238;28;20095;-35
2022/04/22 00:07:01;;;;;;;0.30;0.20;;;;;;;;;;4181719;28;20049;-35
2022/04/22 00:09:02;;;;;;;0.10;0.10;;;;;;;;;;4181252;28;20683;-35
2022/04/22 00:13:25;;;;;;;0.15;0.10;;;;;;;;;;4180212;28;20048;-35
2022/04/22 00:15:26;;;;;;;0.28;0.20;;;;;;;;;;4181003;28;20053;-35
2022/04/22 00:17:27;;;;;;;0.20;0.10;;;;;;;;;;4181539;28;20056;-35
2022/04/22 00:19:29;;;;;;;0.20;0.20;;;;;;;;;;4181278;28;20053;-35
2022/04/22 00:21:30;;;;;;;0.20;0.20;;;;;;;;;;4181194;28;20048;-35
2022/04/22 00:23:32;;;;;;;0.20;0.10;;;;;;;;;;4181109;28;20049;-35
2022/04/22 00:25:33;;;;;;;0.20;0.10;;;;;;;;;;4181124;28;20053;-35
2022/04/22 00:27:36;;;;;;;0.20;0.20;;;;;;;;;;4179834;28;20057;-35
2022/04/22 00:29:37;;;;;;;0.10;0.10;;;;;;;;;;4179487;28;20049;-36
2022/04/22 00:31:38;;;;;;;0.10;0.10;;;;;;;;;;4181014;28;20472;-35
2022/04/22 00:33:40;;;;;;;0.43;0.20;;;;;;;;;;4181257;28;20064;-35
2022/04/22 00:35:43;;;;;;;0.20;0.20;;;;;;;;;;4180796;28;20052;-35
2022/04/22 00:37:46;;;;;;;0.20;0.13;;;;;;;;;;4181042;28;20492;-35
2022/04/22 00:39:48;;;;;;;0.15;0.10;;;;;;;;;;4180611;28;20045;-36
2022/04/22 00:41:49;;;;;;;0.10;0.10;;;;;;;;;;4180915;28;20111;-35
2022/04/22 00:43:52;;;;;;;0.10;0.10;;;;;;;;;;4180829;28;20048;-35
2022/04/22 00:45:55;;;;;;;0.10;0.10;;;;;;;;;;4180407;28;20072;-35
2022/04/22 00:47:56;;;;;;;0.65;0.28;;;;;;;;;;4180825;28;20273;-35
2022/04/22 00:49:57;;;;;;;0.10;0.10;;;;;;;;;;4180641;28;20045;-35
2022/04/22 00:51:58;;;;;;;0.20;0.10;;;;;;;;;;4180761;28;20057;-35
2022/04/22 00:54:01;;;;;;;0.30;0.17;;;;;;;;;;4180510;28;20384;-36
2022/04/22 00:56:04;;;;;;;0.40;0.13;;;;;;;;;;4181142;28;20052;-35
2022/04/22 00:58:05;;;;;;;0.15;0.10;;;;;;;;;;4180870;28;20060;-35
2022/04/22 01:00:07;;;;;;;0.20;0.20;;;;;;;;;;4178870;28;20041;-35
2022/04/22 01:02:08;;;;;;;0.10;0.10;;;;;;;;;;4180556;28;20076;-35
2022/04/22 01:11:10;;;;;;;;;;;;;;;;;;4181226;28;20400;-35
2022/04/22 01:13:12;;;;;;;0.03;0.00;;;;;;;;;;4179131;28;19927;-35
2022/04/22 01:15:13;;;;;;;0.10;0.10;;;;;;;;;;4179864;28;20256;-35
2022/04/22 01:17:14;;;;;;;0.10;0.10;;;;;;;;;;4180380;28;20059;-35
2022/04/22 01:19:16;;;;;;;0.55;0.25;;;;;;;;;;4180271;28;20056;-35
2022/04/22 01:21:18;;;;;;;0.10;0.10;;;;;;;;;;4162477;28;20049;-35
2022/04/22 01:23:19;;;;;;;0.17;0.10;;;;;;;;;;4180185;28;20079;-35
2022/04/22 01:25:20;;;;;;;0.00;0.00;;;;;;;;;;4180029;28;20386;-35
2022/04/22 01:27:22;;;;;;;0.30;0.10;;;;;;;;;;4180256;28;20550;-35
2022/04/22 01:29:23;;;;;;;0.90;0.20;;;;;;;;;;4179856;28;20114;-35
2022/04/22 01:31:25;;;;;;;0.10;0.10;;;;;;;;;;4180348;28;20091;-35
2022/04/22 01:33:26;;;;;;;0.17;0.10;;;;;;;;;;4180003;28;20126;-35
2022/04/22 01:35:27;;;;;;;0.10;0.10;;;;;;;;;;4180128;28;20057;-35
2022/04/22 01:37:28;;;;;;;0.15;0.10;;;;;;;;;;4179944;28;20549;-35
2022/04/22 01:39:30;;;;;;;0.20;0.10;;;;;;;;;;4178682;28;20102;-35
2022/04/22 01:41:31;;;;;;;0.82;0.10;;;;;;;;;;4179976;28;20052;-35
2022/04/22 01:43:34;;;;;;;0.10;0.10;;;;;;;;;;4180225;28;20110;-35
2022/04/22 01:45:37;;;;;;;0.32;0.20;;;;;;;;;;4178136;28;20111;-35
2022/04/22 01:47:39;;;;;;;0.10;0.10;;;;;;;;;;4179796;28;20488;-35
2022/04/22 01:49:40;;;;;;;0.10;0.10;;;;;;;;;;4179689;28;20100;-35
2022/04/22 01:51:41;;;;;;;0.10;0.10;;;;;;;;;;4179709;28;20122;-36
2022/04/22 01:53:42;;;;;;;0.10;0.10;;;;;;;;;;4178629;28;20057;-35
2022/04/22 01:55:43;;;;;;;0.45;0.20;;;;;;;;;;4179563;28;20630;-35
2022/04/22 01:57:44;;;;;;;0.10;0.10;;;;;;;;;;4179911;28;20057;-35
2022/04/22 01:59:46;;;;;;;0.15;0.10;;;;;;;;;;4178926;28;20053;-35
2022/04/22 02:01:48;;;;;;;0.13;0.10;;;;;;;;;;4179685;28;20053;-35
2022/04/22 02:03:49;;;;;;;0.20;0.10;;;;;;;;;;4178257;28;20430;-35
2022/04/22 02:05:50;;;;;;;0.20;0.20;;;;;;;;;;4179626;28;20053;-35
2022/04/22 02:07:51;;;;;;;0.10;0.10;;;;;;;;;;4179412;28;20103;-35
2022/04/22 02:09:53;;;;;;;0.10;0.10;;;;;;;;;;4179741;28;20107;-35
2022/04/22 02:11:54;;;;;;;0.10;0.10;;;;;;;;;;4179278;28;20130;-35
2022/04/22 02:13:56;;;;;;;0.13;0.13;;;;;;;;;;4179650;28;20065;-35
2022/04/22 02:15:59;;;;;;;0.20;0.20;;;;;;;;;;4178980;28;20404;-35
2022/04/22 02:18:00;;;;;;;0.10;0.10;;;;;;;;;;4179661;28;20099;-35
2022/04/22 02:20:03;;;;;;;0.20;0.20;;;;;;;;;;4179173;28;20049;-35
2022/04/22 02:22:04;;;;;;;0.20;0.20;;;;;;;;;;4179258;28;20053;-35
2022/04/22 02:24:06;;;;;;;0.10;0.10;;;;;;;;;;4179311;28;20542;-35
2022/04/22 02:26:07;;;;;;;0.35;0.10;;;;;;;;;;4179263;28;20419;-35
2022/04/22 02:30:28;;;;;;;0.10;0.10;;;;;;;;;;4178825;28;20484;-35
2022/04/22 02:32:29;;;;;;;0.10;0.10;;;;;;;;;;4179291;28;20110;-35
2022/04/22 02:34:31;;;;;;;0.00;0.00;;;;;;;;;;4179213;28;20107;-35
2022/04/22 02:36:32;;;;;;;0.20;0.20;;;;;;;;;;4179160;28;20052;-35
2022/04/22 02:38:34;;;;;;;0.10;0.10;;;;;;;;;;4179158;28;20364;-35
2022/04/22 02:45:29;;;;;;;0.20;0.20;;;;;;;;;;4178774;28;20065;-35
2022/04/22 02:47:30;;;;;;;0.08;0.08;;;;;;;;;;4179205;28;20472;-35
2022/04/22 02:49:31;;;;;;;0.10;0.10;;;;;;;;;;4179166;28;20126;-35
2022/04/22 02:51:32;;;;;;;0.10;0.08;;;;;;;;;;4179484;28;20484;-35
2022/04/22 02:53:34;;;;;;;0.30;0.20;;;;;;;;;;4177829;28;20123;-35
2022/04/22 02:55:37;;;;;;;0.10;0.10;;;;;;;;;;4179140;28;20099;-35
2022/04/22 02:57:38;;;;;;;0.20;0.10;;;;;;;;;;4179025;28;20052;-35
2022/04/22 02:59:40;;;;;;;0.10;0.10;;;;;;;;;;4178479;28;20542;-35
2022/04/22 03:01:43;;;;;;;0.38;0.30;;;;;;;;;;4161109;28;20053;-35
2022/04/22 03:03:44;;;;;;;0.10;0.00;;;;;;;;;;4178937;28;20053;-36
2022/04/22 03:05:45;;;;;;;0.10;0.10;;;;;;;;;;4177595;28;20057;-35
2022/04/22 03:07:46;;;;;;;0.15;0.15;;;;;;;;;;4177940;28;20092;-35
2022/04/22 03:09:47;;;;;;;0.20;0.20;;;;;;;;;;4178860;28;20052;-35
2022/04/22 03:11:49;;;;;;;0.10;0.10;;;;;;;;;;4179150;28;20049;-35
2022/04/22 03:13:51;;;;;;;0.10;0.10;;;;;;;;;;4178864;28;20106;-35
2022/04/22 03:15:52;;;;;;;0.10;0.10;;;;;;;;;;4178749;28;20053;-35
2022/04/22 03:17:54;;;;;;;0.10;0.10;;;;;;;;;;4177882;28;20278;-35
2022/04/22 03:19:55;;;;;;;0.20;0.20;;;;;;;;;;4178624;28;20057;-35
2022/04/22 03:21:56;;;;;;;0.10;0.10;;;;;;;;;;4178862;28;20048;-35
2022/04/22 03:23:57;;;;;;;0.13;0.10;;;;;;;;;;4180824;28;20064;-35
2022/04/22 03:25:59;;;;;;;0.22;0.20;;;;;;;;;;4178443;28;20067;-35
2022/04/22 03:28:04;;;;;;;0.10;0.10;;;;;;;;;;4179807;28;20057;-35
2022/04/22 03:30:05;;;;;;;0.20;0.15;;;;;;;;;;4179923;28;20060;-35
2022/04/22 03:32:07;;;;;;;0.10;0.10;;;;;;;;;;4179931;28;20056;-35
2022/04/22 03:34:07;;;;;;;0.22;0.22;;;;;;;;;;4179634;28;20057;-35
2022/04/22 03:36:09;;;;;;;0.10;0.10;;;;;;;;;;4179837;28;20447;-35
2022/04/22 03:38:11;;;;;;;0.10;0.10;;;;;;;;;;4179802;28;20057;-35
2022/04/22 03:40:12;;;;;;;0.10;0.10;;;;;;;;;;4179586;28;20546;-35
2022/04/22 03:42:13;;;;;;;0.22;0.10;;;;;;;;;;4180028;28;20052;-35
2022/04/22 03:44:16;;;;;;;0.30;0.20;;;;;;;;;;4179302;28;20049;-36
2022/04/22 03:46:17;;;;;;;0.20;0.13;;;;;;;;;;4179726;28;20053;-35
2022/04/22 03:48:18;;;;;;;0.10;0.10;;;;;;;;;;4178465;28;20056;-35
2022/04/22 03:50:20;;;;;;;0.38;0.20;;;;;;;;;;4179538;28;20053;-35
2022/04/22 03:52:21;;;;;;;0.13;0.10;;;;;;;;;;4178236;28;20057;-35
2022/04/22 03:54:24;;;;;;;0.20;0.15;;;;;;;;;;4180069;28;20057;-35
2022/04/22 03:58:46;;;;;;;0.30;0.17;;;;;;;;;;4179358;28;20053;-35
2022/04/22 04:00:50;;;;;;;0.10;0.10;;;;;;;;;;4178600;28;20056;-36
2022/04/22 04:02:51;;;;;;;0.15;0.10;;;;;;;;;;4179301;28;20107;-35
2022/04/22 04:04:52;;;;;;;0.10;0.10;;;;;;;;;;4179336;28;20138;-35
2022/04/22 04:06:54;;;;;;;0.30;0.10;;;;;;;;;;4179397;28;20068;-36
2022/04/22 04:16:00;;;;;;;;;;;;;;;;;;4164927;28;20049;-35
2022/04/22 04:18:01;;;;;;;0.10;0.10;;;;;;;;;;4164729;28;20399;-35
2022/04/22 04:24:43;;;;;;;0.10;0.10;;;;;;;;;;4164863;28;20064;-35
2022/04/22 04:26:45;;;;;;;0.10;0.10;;;;;;;;;;4164619;28;20068;-36
2022/04/22 04:28:47;;;;;;;0.20;0.10;;;;;;;;;;4164649;28;20057;-35
2022/04/22 04:30:48;;;;;;;0.10;0.10;;;;;;;;;;4163901;28;20508;-35
2022/04/22 04:32:49;;;;;;;0.10;0.10;;;;;;;;;;4173770;28;20053;-36
2022/04/22 04:34:50;;;;;;;0.20;0.10;;;;;;;;;;4180853;28;20563;-35
2022/04/22 04:36:52;;;;;;;0.60;0.20;;;;;;;;;;4179871;28;20049;-35
2022/04/22 04:38:53;;;;;;;0.17;0.05;;;;;;;;;;4179629;28;20052;-35
2022/04/22 04:40:54;;;;;;;0.10;0.10;;;;;;;;;;4180788;28;20049;-36
2022/04/22 04:42:55;;;;;;;0.20;0.10;;;;;;;;;;4180913;28;20547;-35
2022/04/22 04:44:56;;;;;;;0.10;0.10;;;;;;;;;;4180289;28;20053;-35
2022/04/22 04:46:57;;;;;;;0.20;0.20;;;;;;;;;;4180691;28;20474;-36
2022/04/22 04:49:01;;;;;;;0.20;0.15;;;;;;;;;;4180954;28;20412;-35
2022/04/22 04:51:03;;;;;;;0.00;0.00;;;;;;;;;;4180986;28;20103;-35
2022/04/22 04:53:04;;;;;;;0.10;0.10;;;;;;;;;;4179501;28;20082;-35
2022/04/22 04:55:07;;;;;;;0.00;0.00;;;;;;;;;;4180518;28;20057;-35
2022/04/22 04:57:08;;;;;;;0.20;0.10;;;;;;;;;;4180725;28;20053;-35
2022/04/22 04:59:10;;;;;;;0.10;0.10;;;;;;;;;;4180476;28;20048;-35
2022/04/22 05:01:11;;;;;;;0.20;0.10;;;;;;;;;;4176852;28;20053;-35
2022/04/22 05:03:12;;;;;;;0.20;0.20;;;;;;;;;;4178817;28;20064;-35
2022/04/22 05:05:13;;;;;;;0.10;0.10;;;;;;;;;;4177242;28;20056;-35
2022/04/22 05:07:15;;;;;;;0.10;0.10;;;;;;;;;;4178551;28;20503;-35
2022/04/22 05:09:16;;;;;;;0.10;0.10;;;;;;;;;;4178365;28;20106;-35
2022/04/22 05:11:17;;;;;;;0.20;0.20;;;;;;;;;;4178410;28;20456;-35
2022/04/22 05:13:18;;;;;;;0.10;0.10;;;;;;;;;;4178120;28;20114;-35
2022/04/22 05:15:22;;;;;;;1.27;0.20;;;;;;;;;;4177823;28;20049;-35
2022/04/22 05:17:23;;;;;;;0.20;0.20;;;;;;;;;;4178407;28;20102;-35
2022/04/22 05:19:25;;;;;;;0.10;0.10;;;;;;;;;;4178493;28;20122;-35
2022/04/22 05:21:26;;;;;;;0.85;0.28;;;;;;;;;;4178565;28;20126;-35
2022/04/22 05:23:27;;;;;;;0.10;0.10;;;;;;;;;;4176401;28;20056;-35
2022/04/22 05:25:29;;;;;;;0.20;0.20;;;;;;;;;;4171748;28;20112;-35
2022/04/22 05:27:31;;;;;;;0.30;0.10;;;;;;;;;;4164831;28;20075;-35
2022/04/22 05:34:13;;;;;;;;;;;;;;;;;;4166780;28;20057;-35
2022/04/22 05:36:14;;;;;;;0.30;0.20;;;;;;;;;;4168261;28;19925;-35
2022/04/22 05:38:15;;;;;;;0.10;0.10;;;;;;;;;;4171019;28;20535;-35
2022/04/22 05:40:19;;;;;;;0.30;0.20;;;;;;;;;;4164323;28;20056;-35
2022/04/22 05:42:20;;;;;;;0.40;0.20;;;;;;;;;;4171594;28;20533;-38
2022/04/22 05:44:21;;;;;;;1.33;0.22;;;;;;;;;;4168119;28;20122;-35
2022/04/22 05:46:22;;;;;;;0.30;0.30;;;;;;;;;;4178481;28;20069;-35
2022/04/22 05:48:24;;;;;;;0.20;0.20;;;;;;;;;;4179253;28;20103;-34
2022/04/22 05:50:27;;;;;;;0.43;0.28;;;;;;;;;;4176337;28;20048;-34
2022/04/22 05:52:28;;;;;;;0.22;0.20;;;;;;;;;;4176711;28;20109;-35
2022/04/22 05:54:30;;;;;;;2.22;0.40;;;;;;;;;;4169284;28;20468;-35
2022/04/22 05:56:32;;;;;;;0.40;0.20;;;;;;;;;;4179850;28;20436;-35
2022/04/22 05:58:33;;;;;;;0.32;0.20;;;;;;;;;;4169239;28;20071;-35
2022/04/22 06:00:34;;;;;;;1.95;0.30;;;;;;;;;;4172042;28;20041;-35
2022/04/22 06:02:35;;;;;;;0.35;0.30;;;;;;;;;;4171336;28;20060;-35
2022/04/22 06:04:37;;;;;;;0.70;0.40;;;;;;;;;;4175105;28;20075;-37
2022/04/22 06:06:38;;;;;;;0.45;0.28;;;;;;;;;;4177042;28;20130;-35
2022/04/22 06:10:59;;;;;;;0.82;0.30;;;;;;;;;;4166319;28;20536;-37
2022/04/22 06:13:02;;;;;;;0.20;0.20;;;;;;;;;;4166540;28;20052;-35
2022/04/22 06:15:04;;;;;;;0.20;0.20;;;;;;;;;;4166217;28;20427;-35
2022/04/22 06:17:06;;;;;;;0.40;0.20;;;;;;;;;;4157946;28;20761;-35
2022/04/22 06:19:07;;;;;;;0.40;0.20;;;;;;;;;;4155760;28;20508;-35
2022/04/22 06:21:08;;;;;;;1.33;0.30;;;;;;;;;;4167250;28;20107;-35
2022/04/22 06:23:09;;;;;;;0.60;0.35;;;;;;;;;;4162034;28;20099;-35
2022/04/22 06:25:11;;;;;;;0.60;0.20;;;;;;;;;;4162434;28;20092;-35
2022/04/22 06:27:12;;;;;;;0.50;0.40;;;;;;;;;;4156204;28;20064;-35
2022/04/22 06:29:14;;;;;;;0.30;0.20;;;;;;;;;;4152133;28;20535;-35
2022/04/22 06:31:15;;;;;;;4.20;0.30;;;;;;;;;;4155574;28;20308;-35
2022/04/22 06:33:18;;;;;;;0.28;0.20;;;;;;;;;;4163019;28;20122;-36
2022/04/22 06:35:21;;;;;;;0.77;0.20;;;;;;;;;;4166875;28;20053;-38
2022/04/22 06:37:22;;;;;;;2.35;0.30;;;;;;;;;;4163726;28;20115;-39
2022/04/22 06:39:24;;;;;;;1.48;0.32;;;;;;;;;;4152404;28;20060;-35
2022/04/22 06:46:05;;;;;;;;;;;;;;;;;;4176193;28;20063;-39
2022/04/22 06:48:07;;;;;;;1.80;0.40;;;;;;;;;;4172131;28;19975;-38
2022/04/22 06:50:09;;;;;;;0.73;0.30;;;;;;;;;;4164103;28;20049;-38
2022/04/22 06:52:10;;;;;;;1.50;0.25;;;;;;;;;;4163753;28;20106;-36
2022/04/22 06:54:12;;;;;;;1.20;0.28;;;;;;;;;;4166976;28;20794;-36
2022/04/22 06:56:13;;;;;;;1.20;0.20;;;;;;;;;;4169632;28;20098;-34
2022/04/22 06:58:16;;;;;;;2.45;0.20;;;;;;;;;;4164056;28;20057;-35
2022/04/22 07:00:18;;;;;;;2.42;0.17;;;;;;;;;;4160374;28;20512;-35
2022/04/22 07:02:19;;;;;;;1.80;0.20;;;;;;;;;;4164409;28;20110;-35
2022/04/22 07:04:22;;;;;;;1.38;0.25;;;;;;;;;;4169105;28;20110;-35
2022/04/22 07:06:24;;;;;;;1.20;0.28;;;;;;;;;;4168910;28;20106;-35
2022/04/22 07:08:25;;;;;;;0.43;0.22;;;;;;;;;;4166691;28;20053;-35
2022/04/22 07:10:26;;;;;;;1.48;0.20;;;;;;;;;;4171019;28;21542;-36
2022/04/22 07:12:28;;;;;;;0.30;0.20;;;;;;;;;;4171588;28;20060;-36
2022/04/22 07:14:31;;;;;;;0.50;0.20;;;;;;;;;;4171514;28;20121;-35
2022/04/22 07:16:33;;;;;;;2.13;0.20;;;;;;;;;;4170876;28;20056;-35
2022/04/22 07:18:34;;;;;;;0.45;0.20;;;;;;;;;;4169309;28;20065;-35
2022/04/22 07:20:35;;;;;;;2.58;0.15;;;;;;;;;;4169846;28;20363;-34
2022/04/22 07:22:38;;;;;;;0.50;0.20;;;;;;;;;;4174051;28;20133;-32
2022/04/22 07:24:39;;;;;;;1.20;0.40;;;;;;;;;;4167505;28;20057;-35
2022/04/22 07:26:42;;;;;;;1.75;0.30;;;;;;;;;;4167081;28;20067;-34
2022/04/22 07:28:48;;;;;;;1.75;0.25;;;;;;;;;;4168989;28;20056;-35
2022/04/22 07:30:50;;;;;;;0.80;0.20;;;;;;;;;;4160105;28;20057;-36
2022/04/22 07:32:51;;;;;;;0.45;0.20;;;;;;;;;;4171449;28;20053;-35
2022/04/22 07:34:54;;;;;;;1.15;0.30;;;;;;;;;;4168498;28;20514;-36
2022/04/22 07:36:56;;;;;;;1.25;0.20;;;;;;;;;;4168975;28;20060;-36
2022/04/22 07:38:58;;;;;;;0.50;0.20;;;;;;;;;;4173192;28;20378;-35
2022/04/22 07:40:58;;;;;;;0.63;0.10;;;;;;;;;;4170376;28;20111;-35
2022/04/22 07:47:41;;;;;;;0.28;0.20;;;;;;;;;;4163843;28;20060;-35
2022/04/22 07:49:42;;;;;;;0.82;0.30;;;;;;;;;;4165262;28;20158;-35
2022/04/22 07:51:44;;;;;;;0.73;0.20;;;;;;;;;;4166737;28;20425;-36
2022/04/22 07:53:45;;;;;;;0.30;0.22;;;;;;;;;;4169962;28;20082;-35
2022/04/22 07:55:47;;;;;;;0.25;0.20;;;;;;;;;;4164666;28;20741;-36
2022/04/22 07:57:49;;;;;;;1.17;0.43;;;;;;;;;;4162877;28;20054;-36
2022/04/22 07:59:50;;;;;;;1.42;0.20;;;;;;;;;;4162553;28;20564;-35
2022/04/22 08:01:51;;;;;;;4.75;0.30;;;;;;;;;;4156852;28;21052;-33
2022/04/22 08:03:58;;;;;;;0.35;0.30;;;;;;;;;;4148359;28;20057;-33
2022/04/22 08:05:59;;;;;;;0.32;0.30;;;;;;;;;;4164849;28;20106;-33
2022/04/22 08:08:01;;;;;;;0.65;0.20;;;;;;;;;;4160987;28;20053;-33
2022/04/22 08:10:02;;;;;;;1.55;0.35;;;;;;;;;;4165038;28;20053;-35
2022/04/22 08:12:04;;;;;;;0.20;0.20;;;;;;;;;;4167231;28;20821;-33
2022/04/22 08:14:05;;;;;;;0.30;0.30;;;;;;;;;;4161887;28;20142;-33
2022/04/22 08:16:07;;;;;;;0.40;0.22;;;;;;;;;;4163308;28;20057;-34
2022/04/22 08:18:08;;;;;;;0.20;0.10;;;;;;;;;;4163297;28;20516;-33
2022/04/22 08:20:10;;;;;;;1.17;0.30;;;;;;;;;;4162460;28;20825;-34
2022/04/22 08:22:11;;;;;;;0.20;0.20;;;;;;;;;;4166507;28;20083;-33
2022/04/22 08:24:13;;;;;;;1.63;0.60;;;;;;;;;;4161578;28;20300;-35
2022/04/22 08:26:14;;;;;;;1.17;0.50;;;;;;;;;;4163310;28;20502;-34
2022/04/22 08:28:16;;;;;;;0.35;0.25;;;;;;;;;;4142480;28;20057;-34
2022/04/22 08:30:17;;;;;;;0.75;0.15;;;;;;;;;;4167729;28;20451;-34
2022/04/22 08:32:18;;;;;;;0.55;0.30;;;;;;;;;;4164282;28;20056;-33
2022/04/22 08:34:19;;;;;;;2.47;0.40;;;;;;;;;;4167284;28;20448;-33
2022/04/22 08:36:20;;;;;;;0.30;0.10;;;;;;;;;;4166746;28;20167;-33
2022/04/22 08:38:22;;;;;;;0.45;0.30;;;;;;;;;;4165234;28;20052;-33
2022/04/22 08:40:23;;;;;;;0.47;0.10;;;;;;;;;;4171583;28;20048;-33
2022/04/22 08:42:25;;;;;;;1.65;0.25;;;;;;;;;;4162035;28;20061;-38
2022/04/22 08:44:27;;;;;;;2.88;0.20;;;;;;;;;;4168814;28;20407;-33
2022/04/22 08:51:08;;;;;;;;;;;;;;;;;;4167923;28;20741;-33
2022/04/22 08:53:12;;;;;;;1.45;0.30;;;;;;;;;;4164837;28;19928;-34
2022/04/22 08:55:13;;;;;;;0.35;0.15;;;;;;;;;;4168536;28;20528;-33
2022/04/22 08:57:14;;;;;;;3.22;0.30;;;;;;;;;;4163713;28;20057;-34
2022/04/22 08:59:16;;;;;;;0.38;0.20;;;;;;;;;;4166235;28;20078;-34
2022/04/22 09:01:17;;;;;;;0.50;0.22;;;;;;;;;;4165647;28;20060;-34
2022/04/22 09:03:19;;;;;;;0.30;0.30;;;;;;;;;;4164171;28;20492;-34
2022/04/22 09:05:20;;;;;;;0.93;0.30;;;;;;;;;;4157267;28;20105;-34
2022/04/22 09:07:26;;;;;;;0.60;0.20;;;;;;;;;;4169911;28;20060;-34
2022/04/22 09:09:27;;;;;;;0.30;0.20;;;;;;;;;;4170631;28;20819;-34
2022/04/22 09:11:29;;;;;;;2.33;0.20;;;;;;;;;;4171783;28;21232;-34
2022/04/22 09:13:30;;;;;;;2.03;0.30;;;;;;;;;;4166933;28;20064;-33
2022/04/22 09:15:34;;;;;;;1.50;0.40;;;;;;;;;;4165082;28;20058;-33
2022/04/22 09:17:36;;;;;;;0.60;0.22;;;;;;;;;;4167758;28;20190;-34
2022/04/22 09:19:37;;;;;;;0.95;0.20;;;;;;;;;;4168479;28;20061;-34
2022/04/22 09:21:38;;;;;;;1.13;0.25;;;;;;;;;;4167433;28;20109;-34
2022/04/22 09:23:40;;;;;;;1.55;0.30;;;;;;;;;;4162332;28;20132;-34
2022/04/22 09:25:44;;;;;;;3.42;0.73;;;;;;;;;;4167369;28;20056;-34
2022/04/22 09:27:45;;;;;;;1.02;0.45;;;;;;;;;;4164016;28;20056;-34
2022/04/22 09:29:54;;;;;;;0.10;0.10;;;;;;;;;;4171974;28;20056;-34
2022/04/22 09:31:55;;;;;;;0.25;0.13;;;;;;;;;;4172511;28;20071;-34
2022/04/22 09:33:56;;;;;;;0.75;0.28;;;;;;;;;;4176600;28;20169;-34
2022/04/22 09:43:12;;;;;;;2.30;0.32;;;;;;;;;;4166902;28;20052;-34
2022/04/22 09:45:14;;;;;;;1.17;0.25;;;;;;;;;;4163786;28;20056;-35
2022/04/22 09:47:15;;;;;;;0.65;0.20;;;;;;;;;;4156469;28;20347;-35
2022/04/22 09:49:37;;;;;;;0.85;0.30;;;;;;;;;;4156453;28;20758;-35
2022/04/22 09:51:38;;;;;;;0.30;0.20;;;;;;;;;;4161612;28;21168;-35
2022/04/22 09:53:39;;;;;;;0.20;0.20;;;;;;;;;;4164144;28;20227;-34
2022/04/22 09:55:48;;;;;;;2.45;0.30;;;;;;;;;;4164415;28;20583;-33
2022/04/22 09:57:59;;;;;;;1.92;0.22;;;;;;;;;;4152777;28;20141;-35
2022/04/22 10:00:00;;;;;;;1.60;0.20;;;;;;;;;;4154182;28;20065;-35
2022/04/22 10:02:02;;;;;;;1.05;0.30;;;;;;;;;;4149570;28;20046;-34
2022/04/22 10:04:03;;;;;;;0.22;0.20;;;;;;;;;;4167860;28;20064;-35
2022/04/22 10:06:05;;;;;;;0.70;0.20;;;;;;;;;;4159955;28;20044;-35
2022/04/22 10:08:08;;;;;;;0.15;0.15;;;;;;;;;;4140256;28;20104;-35
2022/04/22 10:10:11;;;;;;;2.03;0.28;;;;;;;;;;4165361;28;20110;-35
2022/04/22 10:12:15;;;;;;;3.05;0.25;;;;;;;;;;4161858;28;20053;-34
2022/04/22 10:14:20;;;;;;;0.20;0.17;;;;;;;;;;4148517;28;20687;-34
2022/04/22 10:16:21;;;;;;;2.15;0.28;;;;;;;;;;4161010;28;20099;-34
2022/04/22 10:18:23;;;;;;;0.55;0.20;;;;;;;;;;4172906;28;20056;-34
2022/04/22 10:20:26;;;;;;;0.20;0.13;;;;;;;;;;4165543;28;20202;-34
2022/04/22 10:22:27;;;;;;;0.80;0.20;;;;;;;;;;4165784;28;20060;-34
2022/04/22 10:24:29;;;;;;;0.70;0.40;;;;;;;;;;4170616;28;20492;-34
2022/04/22 10:26:31;;;;;;;0.70;0.20;;;;;;;;;;4165325;28;20535;-34
2022/04/22 10:28:32;;;;;;;2.22;0.20;;;;;;;;;;4169410;28;20057;-34
2022/04/22 10:30:34;;;;;;;0.50;0.20;;;;;;;;;;4156481;28;20107;-35
2022/04/22 10:32:36;;;;;;;0.75;0.20;;;;;;;;;;4169091;28;20115;-35
2022/04/22 10:34:42;;;;;;;0.88;0.20;;;;;;;;;;4173468;28;20539;-35
2022/04/22 10:36:44;;;;;;;1.50;0.20;;;;;;;;;;4166691;28;20663;-35
2022/04/22 10:38:47;;;;;;;0.20;0.20;;;;;;;;;;4170092;28;20052;-34
2022/04/22 10:40:48;;;;;;;0.10;0.10;;;;;;;;;;4162406;28;20101;-34
2022/04/22 10:42:50;;;;;;;0.40;0.20;;;;;;;;;;4162720;28;20175;-34
2022/04/22 10:47:14;;;;;;;;;;;;;;;;;;4161212;28;20060;-35
2022/04/22 10:49:15;;;;;;;0.40;0.30;;;;;;;;;;4165822;28;19974;-35
2022/04/22 10:51:17;;;;;;;0.40;0.25;;;;;;;;;;4164521;28;20057;-35
2022/04/22 10:53:25;;;;;;;0.30;0.30;;;;;;;;;;4165806;28;20061;-34
2022/04/22 10:55:26;;;;;;;1.30;0.20;;;;;;;;;;4164981;28;20052;-34
2022/04/22 10:57:32;;;;;;;1.33;0.35;;;;;;;;;;4168457;28;20061;-35
2022/04/22 10:59:33;;;;;;;0.38;0.30;;;;;;;;;;4170327;28;20114;-35
2022/04/22 11:01:40;;;;;;;0.30;0.30;;;;;;;;;;4171249;28;20558;-35
2022/04/22 11:03:54;;;;;;;0.60;0.30;;;;;;;;;;4163880;28;20614;-36
2022/04/22 11:06:00;;;;;;;1.00;0.22;;;;;;;;;;4165693;28;20061;-35
2022/04/22 11:08:04;;;;;;;0.38;0.20;;;;;;;;;;4162005;28;20104;-35
2022/04/22 11:10:05;;;;;;;0.20;0.20;;;;;;;;;;4161925;28;20048;-35
2022/04/22 11:12:06;;;;;;;0.20;0.20;;;;;;;;;;4167206;28;20064;-35
2022/04/22 11:14:44;;;;;;;2.03;0.30;;;;;;;;;;4167005;28;20522;-36
2022/04/22 11:16:45;;;;;;;2.72;0.17;;;;;;;;;;4158495;28;20524;-35
2022/04/22 11:19:09;;;;;;;0.52;0.30;;;;;;;;;;4167775;28;20072;-34
2022/04/22 11:21:33;;;;;;;0.40;0.22;;;;;;;;;;4163994;28;20098;-35
2022/04/22 11:23:42;;;;;;;0.30;0.20;;;;;;;;;;4166692;28;20525;-34
2022/04/22 11:25:46;;;;;;;;;;;;;;;;;;4164714;28;20064;-35
2022/04/22 11:27:48;;;;;;;0.30;0.20;;;;;;;;;;4168309;28;19928;-34
2022/04/22 11:29:49;;;;;;;3.33;0.30;;;;;;;;;;4162849;28;20090;-35
2022/04/22 11:31:56;;;;;;;0.88;0.30;;;;;;;;;;4166485;28;20068;-35
2022/04/22 11:34:05;;;;;;;0.25;0.20;;;;;;;;;;4171309;28;20053;-35
2022/04/22 11:36:06;;;;;;;0.43;0.20;;;;;;;;;;4169472;28;20056;-35
2022/04/22 11:38:07;;;;;;;1.38;0.38;;;;;;;;;;4169523;28;20079;-35
2022/04/22 11:40:09;;;;;;;0.28;0.28;;;;;;;;;;4172435;28;21381;-35
2022/04/22 11:42:11;;;;;;;0.50;0.20;;;;;;;;;;4160413;28;20107;-35
2022/04/22 11:44:19;;;;;;;0.68;0.30;;;;;;;;;;4167710;28;20049;-36
2022/04/22 11:46:20;;;;;;;0.52;0.28;;;;;;;;;;4165870;28;20589;-35
2022/04/22 11:48:23;;;;;;;0.45;0.20;;;;;;;;;;4168930;28;20050;-36
2022/04/22 11:50:26;;;;;;;0.38;0.30;;;;;;;;;;4173012;28;20392;-35
2022/04/22 11:52:29;;;;;;;0.20;0.20;;;;;;;;;;4173332;28;20052;-35
2022/04/22 11:54:30;;;;;;;1.20;0.20;;;;;;;;;;4173623;28;20056;-36
2022/04/22 11:56:31;;;;;;;0.77;0.20;;;;;;;;;;4175454;28;20097;-35
2022/04/22 11:58:32;;;;;;;0.20;0.10;;;;;;;;;;4177165;28;20056;-36
2022/04/22 12:05:33;;;;;;;0.35;0.20;;;;;;;;;;4172944;28;20057;-34
2022/04/22 12:09:54;;;;;;;0.30;0.30;;;;;;;;;;4170489;28;20053;-35
2022/04/22 12:11:58;;;;;;;0.22;0.20;;;;;;;;;;4166811;28;20824;-34
2022/04/22 12:13:59;;;;;;;0.40;0.25;;;;;;;;;;4166301;28;20123;-34
2022/04/22 12:16:00;;;;;;;1.75;0.20;;;;;;;;;;4164387;28;20068;-34
2022/04/22 12:18:02;;;;;;;0.20;0.20;;;;;;;;;;4175184;28;20061;-34
2022/04/22 12:20:03;;;;;;;0.20;0.20;;;;;;;;;;4165792;28;20057;-34
2022/04/22 12:22:06;;;;;;;0.25;0.20;;;;;;;;;;4169781;28;20111;-34
2022/04/22 12:24:07;;;;;;;0.30;0.30;;;;;;;;;;4175627;28;20866;-33
2022/04/22 12:26:22;;;;;;;0.28;0.20;;;;;;;;;;4174886;28;20053;-33
2022/04/22 12:28:24;;;;;;;0.20;0.20;;;;;;;;;;4177669;28;20052;-35
2022/04/22 12:30:34;;;;;;;0.95;0.30;;;;;;;;;;4176372;28;20399;-34
2022/04/22 12:32:37;;;;;;;1.80;0.25;;;;;;;;;;4172678;28;20048;-34
2022/04/22 12:34:39;;;;;;;0.65;0.20;;;;;;;;;;4170730;28;20575;-34
2022/04/22 12:36:55;;;;;;;0.20;0.20;;;;;;;;;;4174825;28;20064;-34
2022/04/22 12:38:56;;;;;;;0.20;0.20;;;;;;;;;;4172161;28;20053;-34
2022/04/22 12:40:57;;;;;;;0.22;0.20;;;;;;;;;;4179604;28;20048;-34
2022/04/22 12:43:22;;;;;;;0.45;0.22;;;;;;;;;;4175579;28;20118;-34
2022/04/22 12:52:32;;;;;;;0.30;0.20;;;;;;;;;;4176257;28;20514;-35
2022/04/22 12:54:33;;;;;;;1.42;0.50;;;;;;;;;;4172138;28;20056;-34
2022/04/22 12:56:35;;;;;;;0.30;0.30;;;;;;;;;;4171621;28;20094;-33
2022/04/22 12:58:50;;;;;;;0.20;0.20;;;;;;;;;;4171680;28;20117;-34
2022/04/22 13:00:54;;;;;;;0.20;0.20;;;;;;;;;;4165018;28;20056;-34
2022/04/22 13:03:01;;;;;;;0.43;0.20;;;;;;;;;;4170508;28;20586;-34
2022/04/22 13:05:04;;;;;;;0.93;0.40;;;;;;;;;;4164391;28;20053;-34
2022/04/22 13:07:11;;;;;;;0.35;0.20;;;;;;;;;;4170350;28;20072;-35
2022/04/22 13:09:14;;;;;;;0.50;0.22;;;;;;;;;;4167954;28;20053;-34
2022/04/22 13:11:15;;;;;;;0.50;0.20;;;;;;;;;;4166922;28;20048;-34
2022/04/22 13:13:16;;;;;;;0.22;0.20;;;;;;;;;;4172353;28;20333;-34
2022/04/22 13:15:19;;;;;;;0.20;0.10;;;;;;;;;;4175444;28;20501;-34
2022/04/22 13:17:22;;;;;;;0.25;0.20;;;;;;;;;;4170293;28;20057;-33
2022/04/22 13:19:23;;;;;;;0.20;0.10;;;;;;;;;;4172300;28;20072;-34
2022/04/22 13:21:25;;;;;;;1.10;0.20;;;;;;;;;;4171602;28;20044;-33
2022/04/22 13:23:26;;;;;;;0.50;0.20;;;;;;;;;;4171305;28;20056;-34
2022/04/22 13:25:27;;;;;;;1.02;0.25;;;;;;;;;;4174875;28;20048;-33
2022/04/22 13:27:28;;;;;;;0.20;0.20;;;;;;;;;;4175245;28;20397;-34
2022/04/22 13:29:30;;;;;;;0.38;0.20;;;;;;;;;;4175916;28;20511;-34
2022/04/22 13:31:32;;;;;;;0.30;0.20;;;;;;;;;;4168156;28;20049;-34